createdAt,value
2017-07-12T00:00:15.253Z,32.84
2017-07-12T00:01:14.925Z,32.84
2017-07-12T00:02:15.229Z,32.75
2017-07-12T00:03:15.215Z,32.84
2017-07-12T00:04:15.201Z,32.84
2017-07-12T00:05:15.189Z,32.84
2017-07-12T00:06:15.174Z,32.84
2017-07-12T00:07:15.172Z,32.65
2017-07-12T00:08:15.202Z,32.84
2017-07-12T00:09:14.834Z,32.75
2017-07-12T00:10:15.131Z,32.84
2017-07-12T00:11:15.124Z,32.65
2017-07-12T00:12:15.114Z,32.56
2017-07-12T00:13:15.105Z,33.04
2017-07-12T00:14:15.088Z,33.04
2017-07-12T00:15:15.071Z,33.04
2017-07-12T00:16:15.067Z,32.75
2017-07-12T00:17:15.048Z,32.94
2017-07-12T00:18:15.046Z,33.04
2017-07-12T00:19:15.027Z,33.13
2017-07-12T00:20:14.705Z,33.04
2017-07-12T00:21:15.010Z,32.94
2017-07-12T00:22:14.995Z,33.04
2017-07-12T00:23:14.674Z,33.04
2017-07-12T00:24:14.663Z,32.94
2017-07-12T00:25:14.968Z,33.04
2017-07-12T00:26:14.952Z,32.65
2017-07-12T00:27:14.624Z,33.05
2017-07-12T00:28:14.926Z,33.32
2017-07-12T00:29:14.915Z,33.23
2017-07-12T00:30:14.902Z,33.23
2017-07-12T00:31:14.936Z,33.42
2017-07-12T00:32:14.882Z,33.32
2017-07-12T00:33:14.876Z,33.42
2017-07-12T00:34:14.853Z,33.32
2017-07-12T00:35:14.541Z,33.42
2017-07-12T00:36:14.839Z,33.42
2017-07-12T00:37:14.827Z,33.42
2017-07-12T00:38:14.819Z,33.42
2017-07-12T00:39:14.489Z,32.84
2017-07-12T00:40:14.484Z,32.84
2017-07-12T00:41:14.471Z,33.13
2017-07-12T00:42:14.456Z,33.32
2017-07-12T00:43:14.755Z,33.42
2017-07-12T00:44:14.750Z,33.32
2017-07-12T00:45:14.730Z,33.23
2017-07-12T00:46:14.724Z,32.84
2017-07-12T00:47:14.711Z,32.94
2017-07-12T00:48:14.700Z,32.94
2017-07-12T00:49:14.378Z,32.94
2017-07-12T00:50:14.686Z,32.94
2017-07-12T00:51:14.679Z,33.23
2017-07-12T00:52:14.649Z,33.04
2017-07-12T00:53:14.338Z,32.56
2017-07-12T00:54:14.636Z,32.75
2017-07-12T00:55:14.630Z,33.13
2017-07-12T00:56:14.304Z,32.94
2017-07-12T00:57:14.595Z,32.84
2017-07-12T00:58:14.280Z,32.84
2017-07-12T00:59:14.577Z,32.65
2017-07-12T01:00:14.565Z,32.65
2017-07-12T01:01:14.550Z,32.65
2017-07-12T01:02:14.545Z,32.65
2017-07-12T01:03:14.219Z,32.84
2017-07-12T01:04:14.516Z,32.56
2017-07-12T01:05:14.195Z,32.65
2017-07-12T01:06:14.188Z,33.23
2017-07-12T01:07:14.175Z,33.04
2017-07-12T01:08:14.471Z,33.04
2017-07-12T01:09:14.459Z,32.94
2017-07-12T01:10:14.451Z,32.84
2017-07-12T01:11:14.443Z,32.84
2017-07-12T01:12:14.428Z,33.23
2017-07-12T01:13:14.409Z,32.84
2017-07-12T01:14:14.408Z,33.23
2017-07-12T01:15:14.388Z,33.13
2017-07-12T01:16:14.377Z,33.51
2017-07-12T01:17:14.370Z,33.51
2017-07-12T01:18:14.352Z,33.51
2017-07-12T01:19:14.346Z,33.61
2017-07-12T01:20:14.337Z,33.51
2017-07-12T01:21:14.326Z,33.51
2017-07-12T01:22:14.306Z,33.8
2017-07-12T01:23:13.987Z,33.7
2017-07-12T01:24:14.344Z,33.89
2017-07-12T01:25:14.274Z,33.7
2017-07-12T01:26:14.263Z,33.61
2017-07-12T01:27:14.256Z,33.51
2017-07-12T01:28:14.246Z,34.08
2017-07-12T01:29:14.227Z,34.08
2017-07-12T01:30:14.223Z,33.89
2017-07-12T01:31:14.207Z,34.17
2017-07-12T01:32:14.204Z,34.08
2017-07-12T01:33:14.184Z,33.98
2017-07-12T01:34:14.173Z,34.17
2017-07-12T01:35:14.165Z,33.98
2017-07-12T01:36:14.152Z,33.98
2017-07-12T01:37:14.137Z,33.98
2017-07-12T01:38:13.816Z,34.36
2017-07-12T01:39:14.121Z,34.17
2017-07-12T01:40:13.798Z,34.55
2017-07-12T01:41:14.105Z,34.46
2017-07-12T01:42:14.085Z,34.17
2017-07-12T01:43:13.761Z,34.55
2017-07-12T01:44:14.057Z,34.36
2017-07-12T01:45:14.052Z,34.36
2017-07-12T01:46:13.722Z,34.48
2017-07-12T01:47:14.023Z,34.38
2017-07-12T01:48:14.009Z,34.48
2017-07-12T01:49:14.000Z,34.38
2017-07-12T01:50:13.992Z,34.67
2017-07-12T01:51:13.990Z,34.57
2017-07-12T01:52:13.655Z,34.57
2017-07-12T01:53:13.956Z,34.67
2017-07-12T01:54:13.941Z,34.76
2017-07-12T01:55:13.930Z,34.84
2017-07-12T01:56:13.924Z,34.84
2017-07-12T01:57:13.908Z,34.86
2017-07-12T01:58:13.900Z,35.05
2017-07-12T01:59:13.883Z,35.03
2017-07-12T02:00:13.873Z,35.33
2017-07-12T02:01:13.865Z,35.33
2017-07-12T02:02:13.854Z,35.13
2017-07-12T02:03:13.847Z,35.24
2017-07-12T02:04:13.516Z,35.42
2017-07-12T02:05:13.816Z,35.61
2017-07-12T02:06:13.805Z,36
2017-07-12T02:07:13.793Z,35.81
2017-07-12T02:08:13.788Z,35.52
2017-07-12T02:09:13.464Z,35.71
2017-07-12T02:10:13.756Z,35.81
2017-07-12T02:11:13.440Z,35.9
2017-07-12T02:12:13.796Z,35.9
2017-07-12T02:13:13.726Z,36.09
2017-07-12T02:14:13.713Z,36.47
2017-07-12T02:15:13.709Z,36.19
2017-07-12T02:16:13.382Z,36.38
2017-07-12T02:17:13.681Z,36.76
2017-07-12T02:18:13.362Z,36.66
2017-07-12T02:19:13.669Z,36.74
2017-07-12T02:20:13.646Z,36.47
2017-07-12T02:21:13.327Z,36.57
2017-07-12T02:22:13.629Z,36.76
2017-07-12T02:23:13.307Z,36.65
2017-07-12T02:24:13.607Z,36.76
2017-07-12T02:25:13.597Z,36.74
2017-07-12T02:26:13.268Z,36.93
2017-07-12T02:27:13.566Z,36.94
2017-07-12T02:28:13.557Z,36.76
2017-07-12T02:29:13.552Z,36.85
2017-07-12T02:30:13.532Z,36.83
2017-07-12T02:31:13.533Z,36.76
2017-07-12T02:32:13.521Z,36.76
2017-07-12T02:33:13.192Z,36.94
2017-07-12T02:34:13.488Z,36.85
2017-07-12T02:35:13.476Z,37.04
2017-07-12T02:36:13.468Z,36.93
2017-07-12T02:37:13.145Z,36.93
2017-07-12T02:38:13.456Z,36.93
2017-07-12T02:39:13.437Z,36.74
2017-07-12T02:40:13.420Z,36.83
2017-07-12T02:41:13.415Z,36.74
2017-07-12T02:42:13.093Z,36.93
2017-07-12T02:43:13.384Z,36.93
2017-07-12T02:44:13.383Z,36.83
2017-07-12T02:45:13.362Z,36.93
2017-07-12T02:46:13.364Z,36.65
2017-07-12T02:47:13.339Z,36.65
2017-07-12T02:48:13.336Z,36.65
2017-07-12T02:49:13.317Z,36.74
2017-07-12T02:50:13.308Z,36.46
2017-07-12T02:51:13.300Z,36.57
2017-07-12T02:52:13.292Z,36.47
2017-07-12T02:53:13.273Z,36.57
2017-07-12T02:54:13.278Z,36.57
2017-07-12T02:55:13.251Z,36.28
2017-07-12T02:56:13.239Z,36.38
2017-07-12T02:57:13.251Z,36.38
2017-07-12T02:58:13.230Z,36.57
2017-07-12T02:59:12.901Z,36.19
2017-07-12T03:00:13.200Z,36.19
2017-07-12T03:01:13.193Z,36.28
2017-07-12T03:02:12.873Z,36.38
2017-07-12T03:03:13.175Z,36.19
2017-07-12T03:04:12.848Z,36.47
2017-07-12T03:05:13.150Z,36.47
2017-07-12T03:06:13.140Z,36.47
2017-07-12T03:07:13.122Z,36.65
2017-07-12T03:08:12.809Z,36.57
2017-07-12T03:09:13.103Z,36.55
2017-07-12T03:10:13.097Z,36.57
2017-07-12T03:11:13.078Z,36.36
2017-07-12T03:12:13.079Z,36.46
2017-07-12T03:13:13.065Z,36.46
2017-07-12T03:14:12.742Z,36.26
2017-07-12T03:15:13.033Z,36.26
2017-07-12T03:16:13.023Z,36.07
2017-07-12T03:17:13.012Z,36.19
2017-07-12T03:18:12.690Z,36.28
2017-07-12T03:19:12.683Z,36.28
2017-07-12T03:20:12.979Z,36.28
2017-07-12T03:21:12.972Z,36.09
2017-07-12T03:22:12.955Z,36.19
2017-07-12T03:23:12.633Z,36.28
2017-07-12T03:24:12.932Z,36.47
2017-07-12T03:25:12.929Z,36.28
2017-07-12T03:26:12.919Z,36.28
2017-07-12T03:27:12.901Z,36.28
2017-07-12T03:28:12.889Z,36.38
2017-07-12T03:29:12.880Z,36.19
2017-07-12T03:30:12.868Z,36.38
2017-07-12T03:31:12.854Z,36.57
2017-07-12T03:32:12.532Z,36.28
2017-07-12T03:33:12.842Z,36.38
2017-07-12T03:34:12.818Z,36.47
2017-07-12T03:35:12.814Z,36.09
2017-07-12T03:36:12.795Z,36.19
2017-07-12T03:37:12.792Z,36.19
2017-07-12T03:38:12.470Z,36.38
2017-07-12T03:39:12.768Z,36.38
2017-07-12T03:40:12.757Z,36.19
2017-07-12T03:41:12.742Z,36.38
2017-07-12T03:42:12.729Z,36.38
2017-07-12T03:43:12.719Z,36.28
2017-07-12T03:44:12.713Z,36.47
2017-07-12T03:45:12.388Z,36.57
2017-07-12T03:46:12.377Z,36.47
2017-07-12T03:47:12.371Z,36.57
2017-07-12T03:48:12.664Z,36.66
2017-07-12T03:49:12.348Z,36.76
2017-07-12T03:50:12.655Z,36.94
2017-07-12T03:51:12.640Z,36.85
2017-07-12T03:52:12.639Z,36.94
2017-07-12T03:53:12.611Z,36.57
2017-07-12T03:54:12.596Z,36.77
2017-07-12T03:55:12.588Z,36.68
2017-07-12T03:56:12.572Z,36.87
2017-07-12T03:57:12.569Z,36.96
2017-07-12T03:58:12.559Z,36.87
2017-07-12T03:59:12.545Z,37.06
2017-07-12T04:00:12.537Z,37.54
2017-07-12T04:01:12.209Z,37.25
2017-07-12T04:02:12.509Z,37.54
2017-07-12T04:03:12.501Z,37.63
2017-07-12T04:04:12.491Z,37.92
2017-07-12T04:05:12.474Z,38.1
2017-07-12T04:06:12.467Z,38.29
2017-07-12T04:07:12.457Z,38.29
2017-07-12T04:08:12.444Z,38.58
2017-07-12T04:09:12.439Z,38.77
2017-07-12T04:10:12.419Z,39.06
2017-07-12T04:11:12.409Z,39.53
2017-07-12T04:12:12.094Z,39.53
2017-07-12T04:13:12.078Z,39.91
2017-07-12T04:14:12.379Z,40.01
2017-07-12T04:15:12.371Z,40.2
2017-07-12T04:16:12.356Z,40.58
2017-07-12T04:17:12.039Z,40.77
2017-07-12T04:18:12.339Z,41.05
2017-07-12T04:19:12.328Z,40.95
2017-07-12T04:20:12.322Z,41.26
2017-07-12T04:21:12.302Z,41.74
2017-07-12T04:22:12.297Z,41.93
2017-07-12T04:23:11.974Z,42.02
2017-07-12T04:24:12.267Z,42.21
2017-07-12T04:25:11.951Z,42.5
2017-07-12T04:26:12.256Z,42.79
2017-07-12T04:27:12.238Z,42.69
2017-07-12T04:28:12.224Z,43.07
2017-07-12T04:29:12.220Z,43.07
2017-07-12T04:30:12.220Z,43.64
2017-07-12T04:31:12.195Z,43.83
2017-07-12T04:32:12.190Z,44.12
2017-07-12T04:33:12.179Z,44.49
2017-07-12T04:34:12.163Z,44.78
2017-07-12T04:35:12.155Z,45.35
2017-07-12T04:36:12.144Z,45.54
2017-07-12T04:37:12.130Z,45.73
2017-07-12T04:38:12.117Z,45.83
2017-07-12T04:39:12.110Z,46.01
2017-07-12T04:40:12.092Z,46.49
2017-07-12T04:41:12.090Z,46.4
2017-07-12T04:42:12.072Z,46.78
2017-07-12T04:43:12.060Z,47.06
2017-07-12T04:44:11.736Z,47.16
2017-07-12T04:45:12.048Z,47.63
2017-07-12T04:46:12.023Z,47.82
2017-07-12T04:47:12.015Z,48.01
2017-07-12T04:48:12.011Z,48.01
2017-07-12T04:49:11.997Z,48.21
2017-07-12T04:50:11.982Z,48.3
2017-07-12T04:51:11.974Z,48.87
2017-07-12T04:52:11.965Z,48.96
2017-07-12T04:53:11.639Z,49.35
2017-07-12T04:54:11.678Z,49.25
2017-07-12T04:55:11.923Z,49.35
2017-07-12T04:56:11.913Z,49.63
2017-07-12T04:57:11.908Z,49.54
2017-07-12T04:58:11.581Z,50.48
2017-07-12T04:59:11.883Z,50.39
2017-07-12T05:00:11.876Z,50.58
2017-07-12T05:01:11.547Z,50.48
2017-07-12T05:02:11.540Z,50.68
2017-07-12T05:03:11.839Z,50.68
2017-07-12T05:04:11.514Z,50.87
2017-07-12T05:05:11.814Z,50.96
2017-07-12T05:06:11.492Z,51.15
2017-07-12T05:07:11.798Z,51.34
2017-07-12T05:08:11.789Z,51.62
2017-07-12T05:09:11.770Z,51.82
2017-07-12T05:10:11.759Z,51.82
2017-07-12T05:11:11.750Z,52.1
2017-07-12T05:12:11.741Z,52.2
2017-07-12T05:13:11.727Z,52.39
2017-07-12T05:14:11.408Z,52.67
2017-07-12T05:15:11.711Z,52.76
2017-07-12T05:16:11.388Z,52.67
2017-07-12T05:17:11.690Z,52.76
2017-07-12T05:18:11.680Z,52.76
2017-07-12T05:19:11.666Z,53.34
2017-07-12T05:20:11.668Z,53.34
2017-07-12T05:21:11.644Z,53.43
2017-07-12T05:22:11.323Z,53.63
2017-07-12T05:23:11.313Z,53.63
2017-07-12T05:24:11.624Z,54.19
2017-07-12T05:25:11.292Z,54.29
2017-07-12T05:26:11.600Z,54.32
2017-07-12T05:27:11.580Z,54.38
2017-07-12T05:28:11.580Z,54.6
2017-07-12T05:29:11.559Z,54.98
2017-07-12T05:30:11.552Z,55.08
2017-07-12T05:31:11.229Z,55.05
2017-07-12T05:32:11.534Z,55.52
2017-07-12T05:33:11.520Z,55.33
2017-07-12T05:34:11.513Z,55.62
2017-07-12T05:35:11.193Z,55.81
2017-07-12T05:36:11.487Z,56.29
2017-07-12T05:37:11.166Z,56.38
2017-07-12T05:38:11.473Z,56.38
2017-07-12T05:39:11.459Z,56.38
2017-07-12T05:40:11.452Z,56.41
2017-07-12T05:41:11.450Z,56.79
2017-07-12T05:42:11.428Z,56.7
2017-07-12T05:43:11.109Z,57.45
2017-07-12T05:44:11.406Z,57.26
2017-07-12T05:45:11.398Z,57.45
2017-07-12T05:46:11.386Z,57.74
2017-07-12T05:47:11.377Z,58.03
2017-07-12T05:48:11.369Z,57.93
2017-07-12T05:49:11.361Z,57.74
2017-07-12T05:50:11.345Z,58.22
2017-07-12T05:51:11.331Z,58.03
2017-07-12T05:52:11.326Z,58.25
2017-07-12T05:53:11.307Z,58.25
2017-07-12T05:54:11.293Z,58.81
2017-07-12T05:55:11.287Z,58.91
2017-07-12T05:56:11.284Z,59.77
2017-07-12T05:57:11.271Z,59.64
2017-07-12T05:58:11.255Z,60.34
2017-07-12T05:59:10.935Z,60.6
2017-07-12T06:00:11.235Z,60.31
2017-07-12T06:01:11.222Z,60.5
2017-07-12T06:02:11.217Z,60.97
2017-07-12T06:03:11.209Z,61.07
2017-07-12T06:04:11.189Z,61.45
2017-07-12T06:05:11.189Z,61.64
2017-07-12T06:06:10.866Z,62.02
2017-07-12T06:07:11.160Z,61.93
2017-07-12T06:08:11.154Z,62.4
2017-07-12T06:09:11.137Z,62.21
2017-07-12T06:10:11.133Z,62.78
2017-07-12T06:11:11.133Z,62.78
2017-07-12T06:12:11.113Z,63.07
2017-07-12T06:13:11.096Z,62.12
2017-07-12T06:14:11.093Z,61.67
2017-07-12T06:15:11.080Z,61.51
2017-07-12T06:16:11.072Z,62.08
2017-07-12T06:17:11.064Z,61.8
2017-07-12T06:18:11.050Z,61.99
2017-07-12T06:19:11.042Z,61.99
2017-07-12T06:20:11.032Z,62.4
2017-07-12T06:21:11.021Z,62.46
2017-07-12T06:22:10.701Z,61.73
2017-07-12T06:23:10.996Z,61.86
2017-07-12T06:24:10.989Z,63.29
2017-07-12T06:25:10.974Z,64.12
2017-07-12T06:26:10.964Z,64.87
2017-07-12T06:27:10.958Z,64.75
2017-07-12T06:28:10.957Z,63.83
2017-07-12T06:29:10.934Z,64.72
2017-07-12T06:30:10.927Z,65.26
2017-07-12T06:31:10.926Z,65.92
2017-07-12T06:32:10.605Z,66.02
2017-07-12T06:33:10.905Z,65.7
2017-07-12T06:34:10.579Z,65.92
2017-07-12T06:35:10.572Z,66.24
2017-07-12T06:36:10.873Z,66.69
2017-07-12T06:37:10.866Z,66.59
2017-07-12T06:38:10.857Z,66.11
2017-07-12T06:39:10.855Z,65.52
2017-07-12T06:40:10.843Z,65.99
2017-07-12T06:41:10.827Z,66.38
2017-07-12T06:42:10.825Z,67.04
2017-07-12T06:43:10.816Z,68.66
2017-07-12T06:44:10.812Z,69.93
2017-07-12T06:45:10.794Z,70.75
2017-07-12T06:46:10.481Z,71.03
2017-07-12T06:47:10.779Z,71.7
2017-07-12T06:48:10.769Z,72.27
2017-07-12T06:49:10.762Z,72.17
2017-07-12T06:50:10.444Z,72.17
2017-07-12T06:51:10.437Z,71.42
2017-07-12T06:52:10.735Z,71.17
2017-07-12T06:53:10.721Z,71.83
2017-07-12T06:54:10.714Z,72.31
2017-07-12T06:55:10.712Z,71.07
2017-07-12T06:56:10.390Z,70.44
2017-07-12T06:57:10.688Z,70.28
2017-07-12T06:58:10.682Z,70.57
2017-07-12T06:59:10.676Z,71.62
2017-07-12T07:00:10.675Z,72.38
2017-07-12T07:01:10.659Z,72.63
2017-07-12T07:02:10.335Z,72.92
2017-07-12T07:03:10.640Z,72.44
2017-07-12T07:04:10.622Z,72.38
2017-07-12T07:05:10.615Z,72.23
2017-07-12T07:06:10.614Z,73.08
2017-07-12T07:07:10.288Z,72.86
2017-07-12T07:08:10.592Z,71.94
2017-07-12T07:09:10.595Z,71.59
2017-07-12T07:10:10.580Z,71.72
2017-07-12T07:11:10.575Z,71.76
2017-07-12T07:12:10.254Z,72.24
2017-07-12T07:13:10.554Z,73.39
2017-07-12T07:14:10.555Z,74.11
2017-07-12T07:15:10.540Z,74.21
2017-07-12T07:16:10.527Z,74.69
2017-07-12T07:17:10.521Z,74.78
2017-07-12T07:18:10.518Z,75.45
2017-07-12T07:19:10.516Z,75.2
2017-07-12T07:20:10.504Z,75.78
2017-07-12T07:21:10.183Z,75.96
2017-07-12T07:22:10.172Z,77.4
2017-07-12T07:23:10.169Z,77.23
2017-07-12T07:24:10.474Z,78.37
2017-07-12T07:25:10.464Z,77.99
2017-07-12T07:26:10.454Z,77.65
2017-07-12T07:27:10.454Z,76.64
2017-07-12T07:28:10.449Z,77.72
2017-07-12T07:29:10.122Z,79.69
2017-07-12T07:30:10.434Z,81.04
2017-07-12T07:31:10.417Z,80.72
2017-07-12T07:32:10.417Z,80.62
2017-07-12T07:33:10.405Z,81.9
2017-07-12T07:34:10.398Z,81.67
2017-07-12T07:35:10.079Z,82.82
2017-07-12T07:36:10.382Z,82.87
2017-07-12T07:37:10.374Z,83.67
2017-07-12T07:38:10.365Z,82.49
2017-07-12T07:39:10.359Z,81.96
2017-07-12T07:40:10.354Z,82
2017-07-12T07:41:10.350Z,80.9
2017-07-12T07:42:10.338Z,79.98
2017-07-12T07:43:10.328Z,79.49
2017-07-12T07:44:10.018Z,78.95
2017-07-12T07:45:10.318Z,78.7
2017-07-12T07:46:10.316Z,79.22
2017-07-12T07:47:10.305Z,79.89
2017-07-12T07:48:10.292Z,80.04
2017-07-12T07:49:10.287Z,80.33
2017-07-12T07:50:10.288Z,80.71
2017-07-12T07:51:10.275Z,81.34
2017-07-12T07:52:10.271Z,81.73
2017-07-12T07:53:09.954Z,82.11
2017-07-12T07:54:10.259Z,82.35
2017-07-12T07:55:10.251Z,82.07
2017-07-12T07:56:10.247Z,81.63
2017-07-12T07:57:10.249Z,82.63
2017-07-12T07:58:10.238Z,83.83
2017-07-12T07:59:09.919Z,84.52
2017-07-12T08:00:10.222Z,84.56
2017-07-12T08:01:10.221Z,84.7
2017-07-12T08:02:10.217Z,85.14
2017-07-12T08:03:09.900Z,85.24
2017-07-12T08:04:10.206Z,87.2
2017-07-12T08:05:10.198Z,88.26
2017-07-12T08:06:09.881Z,88.12
2017-07-12T08:07:10.179Z,87.16
2017-07-12T08:08:10.175Z,88.26
2017-07-12T08:09:10.163Z,88.98
2017-07-12T08:10:10.156Z,89.31
2017-07-12T08:11:10.159Z,89.22
2017-07-12T08:12:09.839Z,88.45
2017-07-12T08:13:10.145Z,88.69
2017-07-12T08:14:09.822Z,88.69
2017-07-12T08:15:10.124Z,88.88
2017-07-12T08:16:09.804Z,88.59
2017-07-12T08:17:09.797Z,88.17
2017-07-12T08:18:10.103Z,88.4
2017-07-12T08:19:10.095Z,88.31
2017-07-12T08:20:09.771Z,88.88
2017-07-12T08:21:10.074Z,88.21
2017-07-12T08:22:09.762Z,88.31
2017-07-12T08:23:10.054Z,87.83
2017-07-12T08:24:10.053Z,88.07
2017-07-12T08:25:10.041Z,88.16
2017-07-12T08:26:10.033Z,88.16
2017-07-12T08:27:10.031Z,88.98
2017-07-12T08:28:10.015Z,89.54
2017-07-12T08:29:10.008Z,89.79
2017-07-12T08:30:10.004Z,89.64
2017-07-12T08:31:10.012Z,89.6
2017-07-12T08:32:09.993Z,89.36
2017-07-12T08:33:09.976Z,88.88
2017-07-12T08:34:09.977Z,89.83
2017-07-12T08:35:09.651Z,89.36
2017-07-12T08:36:09.955Z,88.88
2017-07-12T08:37:09.943Z,87.78
2017-07-12T08:38:09.631Z,88.3
2017-07-12T08:39:09.620Z,89.06
2017-07-12T08:40:09.925Z,88.83
2017-07-12T08:41:09.918Z,88.92
2017-07-12T08:42:09.904Z,88.92
2017-07-12T08:43:09.897Z,89.31
2017-07-12T08:44:09.889Z,89.12
2017-07-12T08:45:09.879Z,87.82
2017-07-12T08:46:09.873Z,87.77
2017-07-12T08:47:09.863Z,88.34
2017-07-12T08:48:09.864Z,88.25
2017-07-12T08:49:09.545Z,88.44
2017-07-12T08:50:09.848Z,87.77
2017-07-12T08:51:09.861Z,87.72
2017-07-12T08:52:09.826Z,87.48
2017-07-12T08:53:09.823Z,87.48
2017-07-12T08:54:09.812Z,88.15
2017-07-12T08:55:09.809Z,88.24
2017-07-12T08:56:09.804Z,88.91
2017-07-12T08:57:09.792Z,89.44
2017-07-12T08:58:09.790Z,89.97
2017-07-12T08:59:09.786Z,89.25
2017-07-12T09:00:09.771Z,89.01
2017-07-12T09:01:09.774Z,89.15
2017-07-12T09:02:09.768Z,89.06
2017-07-12T09:03:09.755Z,89.25
2017-07-12T09:04:09.440Z,88.73
2017-07-12T09:05:09.740Z,87.91
2017-07-12T09:06:09.738Z,87.19
2017-07-12T09:07:09.731Z,87.57
2017-07-12T09:08:09.722Z,87.86
2017-07-12T09:09:09.715Z,88.29
2017-07-12T09:10:09.711Z,88.77
2017-07-12T09:11:09.706Z,89.11
2017-07-12T09:12:09.382Z,88.49
2017-07-12T09:13:09.689Z,87.53
2017-07-12T09:14:09.674Z,86.61
2017-07-12T09:15:09.679Z,86.8
2017-07-12T09:16:09.671Z,86.47
2017-07-12T09:17:09.355Z,85.41
2017-07-12T09:18:09.659Z,85.6
2017-07-12T09:19:09.647Z,85.45
2017-07-12T09:20:09.640Z,86.31
2017-07-12T09:21:09.632Z,85.88
2017-07-12T09:22:09.321Z,85.54
2017-07-12T09:23:09.626Z,85.35
2017-07-12T09:24:09.623Z,84.72
2017-07-12T09:33:09.568Z,87.7
2017-07-12T09:34:09.567Z,87.17
2017-07-12T09:35:09.562Z,87.02
2017-07-12T09:36:09.557Z,86.74
2017-07-12T09:37:09.242Z,86.21
2017-07-12T09:38:09.541Z,86.15
2017-07-12T09:39:09.551Z,85.77
2017-07-12T09:40:09.536Z,86.96
2017-07-12T09:41:09.526Z,87.84
2017-07-12T09:42:09.520Z,88.75
2017-07-12T09:43:09.525Z,90.33
2017-07-12T09:44:09.519Z,90.67
2017-07-12T09:45:09.514Z,90.77
2017-07-12T09:46:09.507Z,90.58
2017-07-12T09:47:09.505Z,91.01
2017-07-12T09:48:09.497Z,92.78
2017-07-12T09:49:09.493Z,93.84
2017-07-12T09:50:09.479Z,94.03
2017-07-12T09:51:09.478Z,93.84
2017-07-12T09:52:09.473Z,94.6
2017-07-12T09:53:09.471Z,93.84
2017-07-12T09:54:09.455Z,92.64
2017-07-12T09:55:09.451Z,91.97
2017-07-12T09:56:09.452Z,92.59
2017-07-12T09:57:09.130Z,92.07
2017-07-12T09:58:09.434Z,92.4
2017-07-12T09:59:09.122Z,92.93
2017-07-12T10:00:09.430Z,93.4
2017-07-12T10:01:09.437Z,92.88
2017-07-12T10:02:09.410Z,92.02
2017-07-12T10:03:09.412Z,91.63
2017-07-12T10:04:09.095Z,91.97
2017-07-12T10:05:09.397Z,91.68
2017-07-12T10:06:09.079Z,91.2
2017-07-12T10:07:09.392Z,91.34
2017-07-12T10:08:09.376Z,91.25
2017-07-12T10:09:09.379Z,90.72
2017-07-12T10:10:09.367Z,90.86
2017-07-12T10:11:09.370Z,91.29
2017-07-12T10:12:09.372Z,92.35
2017-07-12T10:13:09.352Z,93.3
2017-07-12T10:14:09.358Z,93.35
2017-07-12T10:15:09.351Z,94.55
2017-07-12T10:16:09.342Z,94.51
2017-07-12T10:17:09.328Z,94.02
2017-07-12T10:18:09.325Z,94.84
2017-07-12T10:19:09.320Z,93.84
2017-07-12T10:20:09.008Z,93.98
2017-07-12T10:21:09.009Z,94.55
2017-07-12T10:22:09.000Z,93.69
2017-07-12T10:23:08.987Z,93.64
2017-07-12T10:24:09.297Z,93.93
2017-07-12T10:25:09.293Z,93.98
2017-07-12T10:26:09.285Z,94.74
2017-07-12T10:27:09.274Z,93.5
2017-07-12T10:28:09.279Z,93.5
2017-07-12T10:29:08.956Z,93.35
2017-07-12T10:30:09.288Z,93.74
2017-07-12T10:31:08.940Z,93.69
2017-07-12T10:32:09.248Z,93.59
2017-07-12T10:33:09.251Z,93.59
2017-07-12T10:34:09.235Z,93.5
2017-07-12T10:35:09.229Z,94.6
2017-07-12T10:36:09.229Z,95.03
2017-07-12T10:37:09.224Z,95.61
2017-07-12T10:38:09.217Z,96.8
2017-07-12T10:39:08.896Z,97.27
2017-07-12T10:40:09.203Z,96.61
2017-07-12T10:41:08.889Z,97.23
2017-07-12T10:42:09.186Z,97.37
2017-07-12T10:43:09.184Z,97.42
2017-07-12T10:44:09.180Z,97.18
2017-07-12T10:45:09.165Z,97.23
2017-07-12T10:46:09.159Z,97.37
2017-07-12T10:47:08.846Z,97.66
2017-07-12T10:48:09.145Z,97.37
2017-07-12T10:49:09.142Z,98.27
2017-07-12T10:50:08.829Z,98.32
2017-07-12T10:51:09.133Z,98.9
2017-07-12T10:52:09.127Z,98.42
2017-07-12T10:53:09.112Z,98.32
2017-07-12T10:54:08.796Z,98.9
2017-07-12T10:55:09.103Z,98.7
2017-07-12T10:56:09.092Z,98.65
2017-07-12T10:57:09.080Z,98.18
2017-07-12T10:58:08.764Z,98.18
2017-07-12T10:59:08.758Z,98.08
2017-07-12T11:00:08.748Z,97.61
2017-07-12T11:01:09.058Z,98.18
2017-07-12T11:02:09.051Z,98.18
2017-07-12T11:03:09.046Z,97.61
2017-07-12T11:04:08.717Z,97.41
2017-07-12T11:05:09.027Z,96.94
2017-07-12T11:06:08.707Z,96.89
2017-07-12T11:07:09.019Z,97.22
2017-07-12T11:08:08.688Z,97.32
2017-07-12T11:09:08.678Z,96.17
2017-07-12T11:10:08.678Z,94.7
2017-07-12T11:11:08.970Z,94.6
2017-07-12T11:12:08.655Z,93.41
2017-07-12T11:13:08.956Z,92.07
2017-07-12T11:14:08.644Z,91.2
2017-07-12T11:15:08.942Z,92.02
2017-07-12T11:16:08.627Z,92.35
2017-07-12T11:17:08.936Z,92.79
2017-07-12T11:18:08.929Z,92.4
2017-07-12T11:19:08.916Z,92.5
2017-07-12T11:20:08.905Z,91.97
2017-07-12T11:21:08.900Z,91.97
2017-07-12T11:22:08.589Z,92.35
2017-07-12T11:23:08.580Z,92.79
2017-07-12T11:24:08.878Z,93.74
2017-07-12T11:25:08.879Z,93.93
2017-07-12T11:26:08.867Z,94.03
2017-07-12T11:27:08.863Z,94.36
2017-07-12T11:28:08.861Z,95.41
2017-07-12T11:29:08.844Z,95.46
2017-07-12T11:30:08.839Z,96.17
2017-07-12T11:31:08.832Z,95.32
2017-07-12T11:32:08.835Z,95.51
2017-07-12T11:33:08.821Z,95.65
2017-07-12T11:34:08.814Z,95.41
2017-07-12T11:35:08.809Z,95.65
2017-07-12T11:36:08.799Z,95.84
2017-07-12T11:37:08.790Z,96.08
2017-07-12T11:38:08.778Z,95.41
2017-07-12T11:39:08.778Z,94.41
2017-07-12T11:40:08.761Z,93.46
2017-07-12T11:41:08.759Z,91.64
2017-07-12T11:42:08.748Z,90.26
2017-07-12T11:43:08.739Z,89.3
2017-07-12T11:44:08.735Z,88.77
2017-07-12T11:45:08.719Z,88.58
2017-07-12T11:46:08.719Z,88.43
2017-07-12T11:47:08.714Z,88.43
2017-07-12T11:48:08.700Z,88.62
2017-07-12T11:49:08.699Z,87.66
2017-07-12T11:50:08.682Z,87.52
2017-07-12T11:51:08.682Z,87.18
2017-07-12T11:52:08.669Z,86.9
2017-07-12T11:53:08.675Z,87.32
2017-07-12T11:54:08.671Z,89.23
2017-07-12T11:55:08.347Z,89.67
2017-07-12T11:56:08.339Z,88.81
2017-07-12T11:57:08.331Z,87.37
2017-07-12T11:58:08.632Z,88.76
2017-07-12T11:59:08.636Z,89.29
2017-07-12T12:00:08.620Z,88.76
2017-07-12T12:01:08.619Z,87.61
2017-07-12T12:02:08.614Z,89.37
2017-07-12T12:03:08.296Z,89.91
2017-07-12T12:04:08.598Z,90.63
2017-07-12T12:05:08.589Z,90.16
2017-07-12T12:06:08.273Z,90.06
2017-07-12T12:07:08.583Z,91.2
2017-07-12T12:08:08.267Z,92.16
2017-07-12T12:09:08.574Z,92.74
2017-07-12T12:10:08.572Z,92.79
2017-07-12T12:11:08.244Z,92.5
2017-07-12T12:12:08.551Z,92.64
2017-07-12T12:13:08.540Z,91.78
2017-07-12T12:14:08.537Z,91.45
2017-07-12T12:15:08.524Z,90.92
2017-07-12T12:16:08.521Z,90.53
2017-07-12T12:17:08.515Z,90.1
2017-07-12T12:18:08.200Z,93.07
2017-07-12T12:19:08.197Z,92.74
2017-07-12T12:20:08.508Z,92.55
2017-07-12T12:21:08.495Z,92.36
2017-07-12T12:22:08.175Z,93.12
2017-07-12T12:23:08.169Z,93.55
2017-07-12T12:24:08.474Z,93.74
2017-07-12T12:25:08.156Z,94.27
2017-07-12T12:26:08.149Z,94.6
2017-07-12T12:27:08.447Z,93.46
2017-07-12T12:28:08.447Z,93.79
2017-07-12T12:29:08.433Z,93.79
2017-07-12T12:30:08.431Z,93.6
2017-07-12T12:31:08.425Z,94.17
2017-07-12T12:32:08.101Z,94.51
2017-07-12T12:33:08.100Z,93.79
2017-07-12T12:34:08.091Z,94.27
2017-07-12T12:35:08.083Z,94.17
2017-07-12T12:36:08.388Z,93.79
2017-07-12T12:37:08.067Z,93.98
2017-07-12T12:38:08.366Z,93.74
2017-07-12T12:39:08.357Z,93.03
2017-07-12T12:40:08.349Z,93.7
2017-07-12T12:41:08.340Z,93.37
2017-07-12T12:42:08.025Z,93.27
2017-07-12T12:43:08.328Z,93.6
2017-07-12T12:44:08.327Z,92.55
2017-07-12T12:45:08.003Z,92.74
2017-07-12T12:46:08.302Z,92.08
2017-07-12T12:47:08.293Z,91.13
2017-07-12T12:48:08.284Z,91.17
2017-07-12T12:49:08.276Z,91.46
2017-07-12T12:50:08.282Z,90.65
2017-07-12T12:51:07.954Z,90.94
2017-07-12T12:52:08.253Z,90.32
2017-07-12T12:53:08.242Z,89.94
2017-07-12T12:54:08.240Z,89.13
2017-07-12T12:55:08.223Z,88.6
2017-07-12T12:56:08.216Z,88.18
2017-07-12T12:57:08.214Z,88.08
2017-07-12T12:58:08.431Z,87.41
2017-07-12T12:59:08.195Z,87.23
2017-07-12T13:00:08.188Z,86.94
2017-07-12T13:01:08.177Z,86.84
2017-07-12T13:02:08.161Z,86.55